Time;durP1;ratioP1;P1;durP2;ratioP2;P2;SDS_P1;SDS_P2;PMS_P1;PMS_P2;Temp;Humidity;BMP_temperature;BMP_pressure;BME280_temperature;BME280_humidity;BME280_pressure;Samples;Min_cycle;Max_cycle;Signal;HPM_P1;HPM_P2
2022/02/26 00:01:25;;;;;;;25.80;7.57;;;;;;;;;;5003989;28;20205;-78
2022/02/26 00:03:52;;;;;;;30.63;7.90;;;;;;;;;;5004685;28;20671;-78
2022/02/26 00:06:20;;;;;;;27.43;7.83;;;;;;;;;;5000797;28;20209;-77
2022/02/26 00:08:47;;;;;;;28.67;7.43;;;;;;;;;;4998693;28;20331;-78
2022/02/26 00:11:14;;;;;;;23.73;7.80;;;;;;;;;;4994356;28;20237;-78
2022/02/26 00:13:41;;;;;;;24.70;6.80;;;;;;;;;;5000621;28;20253;-79
2022/02/26 00:16:10;;;;;;;21.93;7.20;;;;;;;;;;5006543;28;20232;-78
2022/02/26 00:18:37;;;;;;;23.63;7.13;;;;;;;;;;5002885;28;20656;-79
2022/02/26 00:21:04;;;;;;;20.30;7.87;;;;;;;;;;5001865;28;20200;-78
2022/02/26 00:23:31;;;;;;;22.57;7.13;;;;;;;;;;5001146;28;20596;-79
2022/02/26 00:25:58;;;;;;;28.73;9.03;;;;;;;;;;5004345;28;20228;-76
2022/02/26 00:28:26;;;;;;;16.00;6.20;;;;;;;;;;5009987;28;20219;-78
2022/02/26 00:30:54;;;;;;;21.47;6.60;;;;;;;;;;5007994;28;20251;-80
2022/02/26 00:33:22;;;;;;;23.20;7.20;;;;;;;;;;5010792;28;20614;-79
2022/02/26 00:35:49;;;;;;;20.93;7.53;;;;;;;;;;5007734;28;20239;-79
2022/02/26 00:38:16;;;;;;;26.67;8.23;;;;;;;;;;5003361;28;20204;-77
2022/02/26 00:40:44;;;;;;;19.63;7.93;;;;;;;;;;5005279;28;20209;-79
2022/02/26 00:43:11;;;;;;;18.50;7.00;;;;;;;;;;5003999;28;20220;-76
2022/02/26 00:45:38;;;;;;;23.73;8.40;;;;;;;;;;4999929;28;20547;-78
2022/02/26 00:48:05;;;;;;;25.50;7.63;;;;;;;;;;5007387;28;20201;-78
2022/02/26 00:50:33;;;;;;;25.20;8.00;;;;;;;;;;5002852;28;20277;-77
2022/02/26 00:53:00;;;;;;;20.40;7.97;;;;;;;;;;5007032;28;20225;-77
2022/02/26 00:55:27;;;;;;;24.73;7.67;;;;;;;;;;5000291;28;20240;-78
2022/02/26 00:57:54;;;;;;;21.63;7.83;;;;;;;;;;5007833;28;20216;-79
2022/02/26 01:00:22;;;;;;;30.33;8.63;;;;;;;;;;5007217;28;20216;-79
2022/02/26 01:02:49;;;;;;;19.43;8.37;;;;;;;;;;5006914;28;20221;-79
2022/02/26 01:05:16;;;;;;;23.10;8.00;;;;;;;;;;5006240;28;20223;-79
2022/02/26 01:07:46;;;;;;;24.60;8.07;;;;;;;;;;5006846;28;20243;-76
2022/02/26 01:10:14;;;;;;;36.40;8.27;;;;;;;;;;5008331;28;20205;-77
2022/02/26 01:12:41;;;;;;;26.10;8.57;;;;;;;;;;5003617;28;20238;-79
2022/02/26 01:15:08;;;;;;;25.87;8.30;;;;;;;;;;5005582;28;20283;-78
2022/02/26 01:17:36;;;;;;;28.80;8.40;;;;;;;;;;5005086;28;20205;-79
2022/02/26 01:20:03;;;;;;;21.50;7.83;;;;;;;;;;5010474;28;20671;-78
2022/02/26 01:22:30;;;;;;;21.10;7.93;;;;;;;;;;5004337;28;20224;-78
2022/02/26 01:24:58;;;;;;;30.17;8.27;;;;;;;;;;5002938;28;20238;-79
2022/02/26 01:27:25;;;;;;;26.17;8.43;;;;;;;;;;5006965;28;20205;-79
2022/02/26 01:29:53;;;;;;;20.40;7.20;;;;;;;;;;5002182;28;20217;-78
2022/02/26 01:32:20;;;;;;;16.73;7.87;;;;;;;;;;5006739;28;20229;-78
2022/02/26 01:34:47;;;;;;;20.03;7.10;;;;;;;;;;5002634;28;20232;-78
2022/02/26 01:37:14;;;;;;;28.53;7.23;;;;;;;;;;5005051;28;20633;-76
2022/02/26 01:39:41;;;;;;;29.40;7.57;;;;;;;;;;5005338;28;20212;-80
2022/02/26 01:42:10;;;;;;;23.47;6.97;;;;;;;;;;5002880;28;20256;-78
2022/02/26 01:44:37;;;;;;;28.53;7.50;;;;;;;;;;5005431;28;20727;-79
2022/02/26 01:47:05;;;;;;;21.60;7.47;;;;;;;;;;5003092;28;20208;-78
2022/02/26 01:49:32;;;;;;;24.73;7.53;;;;;;;;;;5003821;28;20254;-80
2022/02/26 01:51:59;;;;;;;26.70;7.47;;;;;;;;;;5003283;28;20228;-79
2022/02/26 01:54:26;;;;;;;28.57;6.93;;;;;;;;;;5006909;28;20280;-78
2022/02/26 01:56:53;;;;;;;27.30;8.37;;;;;;;;;;5002610;28;20294;-79
2022/02/26 01:59:22;;;;;;;24.73;7.90;;;;;;;;;;5006460;28;20222;-80
2022/02/26 02:01:49;;;;;;;25.87;7.03;;;;;;;;;;5002290;28;20228;-78
2022/02/26 02:04:16;;;;;;;35.00;7.90;;;;;;;;;;5000892;28;20297;-78
2022/02/26 02:06:44;;;;;;;30.00;7.97;;;;;;;;;;5000813;28;20670;-77
2022/02/26 02:09:12;;;;;;;36.97;8.57;;;;;;;;;;5001748;28;20211;-79
2022/02/26 02:11:39;;;;;;;35.47;7.93;;;;;;;;;;5000373;28;20307;-79
2022/02/26 02:14:06;;;;;;;33.87;8.10;;;;;;;;;;5004788;28;20216;-79
2022/02/26 02:16:35;;;;;;;33.20;7.90;;;;;;;;;;5004213;28;20197;-77
2022/02/26 02:19:05;;;;;;;25.37;7.23;;;;;;;;;;5002054;28;20280;-79
2022/02/26 02:21:32;;;;;;;27.83;7.77;;;;;;;;;;5003555;28;20220;-79
2022/02/26 02:24:00;;;;;;;23.37;7.57;;;;;;;;;;5007348;28;20517;-79
2022/02/26 02:26:28;;;;;;;19.47;6.83;;;;;;;;;;5004217;28;20240;-77
2022/02/26 02:28:56;;;;;;;28.27;7.27;;;;;;;;;;5002719;28;20220;-78
2022/02/26 02:31:23;;;;;;;23.60;7.07;;;;;;;;;;5007790;28;20331;-78
2022/02/26 02:33:51;;;;;;;35.13;8.03;;;;;;;;;;5002426;28;20267;-79
2022/02/26 02:36:18;;;;;;;24.00;7.40;;;;;;;;;;5004717;28;20215;-79
2022/02/26 02:38:45;;;;;;;27.80;6.90;;;;;;;;;;5002957;28;20205;-80
2022/02/26 02:41:14;;;;;;;28.77;7.33;;;;;;;;;;5001951;28;20235;-78
2022/02/26 02:43:41;;;;;;;42.90;8.40;;;;;;;;;;5000369;28;20201;-79
2022/02/26 02:46:09;;;;;;;23.07;6.33;;;;;;;;;;5004498;28;20302;-79
2022/02/26 02:48:38;;;;;;;27.50;7.83;;;;;;;;;;5002301;28;20204;-79
2022/02/26 02:51:05;;;;;;;25.87;7.17;;;;;;;;;;5003823;28;20216;-79
2022/02/26 02:53:32;;;;;;;23.03;7.40;;;;;;;;;;5000597;28;20249;-78
2022/02/26 02:56:00;;;;;;;28.00;7.73;;;;;;;;;;5001327;28;20201;-80
2022/02/26 02:58:29;;;;;;;25.13;6.70;;;;;;;;;;5003273;28;20236;-79
2022/02/26 03:00:57;;;;;;;24.40;7.67;;;;;;;;;;5003105;28;20296;-79
2022/02/26 03:03:25;;;;;;;34.20;8.40;;;;;;;;;;5003465;28;20233;-79
2022/02/26 03:05:52;;;;;;;32.23;7.13;;;;;;;;;;5003124;28;20204;-79
2022/02/26 03:08:23;;;;;;;36.07;8.00;;;;;;;;;;5007148;28;20295;-80
2022/02/26 03:10:50;;;;;;;28.03;7.83;;;;;;;;;;5003871;28;20287;-79
2022/02/26 03:13:20;;;;;;;38.50;8.53;;;;;;;;;;5002145;28;20227;-79
2022/02/26 03:15:48;;;;;;;36.00;8.13;;;;;;;;;;4999678;28;20449;-79
2022/02/26 03:18:16;;;;;;;26.87;8.23;;;;;;;;;;5002697;28;20209;-79
2022/02/26 03:20:43;;;;;;;31.47;8.07;;;;;;;;;;5001956;28;20208;-79
2022/02/26 03:23:10;;;;;;;39.07;8.33;;;;;;;;;;5001824;28;20247;-79
2022/02/26 03:25:37;;;;;;;27.33;7.27;;;;;;;;;;5002477;28;20291;-79
2022/02/26 03:28:04;;;;;;;29.00;8.23;;;;;;;;;;5001793;28;20595;-79
2022/02/26 03:30:32;;;;;;;24.23;8.10;;;;;;;;;;5001845;28;20227;-80
2022/02/26 03:33:01;;;;;;;29.63;7.70;;;;;;;;;;4997427;28;20307;-79
2022/02/26 03:35:28;;;;;;;32.17;8.23;;;;;;;;;;5000833;28;20211;-80
2022/02/26 03:37:55;;;;;;;32.57;8.37;;;;;;;;;;5002930;28;20208;-79
2022/02/26 03:40:22;;;;;;;40.10;8.50;;;;;;;;;;5003392;28;20578;-79
2022/02/26 03:42:49;;;;;;;24.27;7.83;;;;;;;;;;5000296;28;20236;-79
2022/02/26 03:45:17;;;;;;;24.27;7.83;;;;;;;;;;4998158;28;20219;-79
2022/02/26 03:47:44;;;;;;;26.47;8.00;;;;;;;;;;4997459;28;20299;-79
2022/02/26 03:50:13;;;;;;;35.83;8.30;;;;;;;;;;4995294;28;20204;-79
2022/02/26 03:52:40;;;;;;;23.27;8.00;;;;;;;;;;5002236;28;20535;-79
2022/02/26 03:55:08;;;;;;;37.13;8.60;;;;;;;;;;5003859;28;20204;-80
2022/02/26 03:57:36;;;;;;;25.07;8.17;;;;;;;;;;5004347;28;21107;-80
2022/02/26 04:00:03;;;;;;;27.50;7.80;;;;;;;;;;4999928;28;20679;-80
2022/02/26 04:02:30;;;;;;;34.03;8.60;;;;;;;;;;5000169;28;20259;-79
2022/02/26 04:04:57;;;;;;;25.17;8.23;;;;;;;;;;5000130;28;20196;-79
2022/02/26 04:07:26;;;;;;;36.57;7.67;;;;;;;;;;5002556;28;20295;-79
2022/02/26 04:09:53;;;;;;;33.57;8.20;;;;;;;;;;4999571;28;20367;-80
2022/02/26 04:12:20;;;;;;;35.67;8.93;;;;;;;;;;5001559;28;20558;-79
2022/02/26 04:14:47;;;;;;;32.90;8.87;;;;;;;;;;4998843;28;20248;-79
2022/02/26 04:17:14;;;;;;;30.70;8.30;;;;;;;;;;4997659;28;20563;-79
2022/02/26 04:19:42;;;;;;;24.23;8.40;;;;;;;;;;5001111;28;20674;-80
2022/02/26 04:22:09;;;;;;;28.57;9.07;;;;;;;;;;5001103;28;20502;-81
2022/02/26 04:24:38;;;;;;;36.53;9.07;;;;;;;;;;5000395;28;20656;-78
2022/02/26 04:27:05;;;;;;;31.33;9.57;;;;;;;;;;5002434;28;20466;-80
2022/02/26 04:29:32;;;;;;;26.23;8.00;;;;;;;;;;5012885;22;20229;-81
2022/02/26 04:32:00;;;;;;;31.43;7.90;;;;;;;;;;4997622;28;20480;-82
2022/02/26 04:34:27;;;;;;;33.07;8.63;;;;;;;;;;4985250;28;20570;-79
2022/02/26 04:36:54;;;;;;;28.60;8.80;;;;;;;;;;4988331;28;20205;-80
2022/02/26 04:39:21;;;;;;;28.13;7.57;;;;;;;;;;4982436;28;20205;-80
2022/02/26 04:41:49;;;;;;;25.50;7.70;;;;;;;;;;4983534;28;20491;-80
2022/02/26 04:44:17;;;;;;;36.50;8.30;;;;;;;;;;4984168;28;20216;-79
2022/02/26 04:46:44;;;;;;;21.10;7.63;;;;;;;;;;4984126;28;20484;-80
2022/02/26 04:49:11;;;;;;;24.40;7.67;;;;;;;;;;4983208;28;21009;-81
2022/02/26 04:51:38;;;;;;;44.30;9.13;;;;;;;;;;4986595;28;20504;-81
2022/02/26 04:54:05;;;;;;;30.07;8.37;;;;;;;;;;4984180;28;20520;-81
2022/02/26 04:56:32;;;;;;;27.27;7.77;;;;;;;;;;4989161;28;20201;-81
2022/02/26 04:59:01;;;;;;;36.70;8.60;;;;;;;;;;4985769;28;20574;-79
2022/02/26 05:01:28;;;;;;;25.93;7.50;;;;;;;;;;4984149;28;20457;-82
2022/02/26 05:03:55;;;;;;;26.20;7.93;;;;;;;;;;4984999;28;20453;-80
2022/02/26 05:06:28;;;;;;;37.50;8.83;;;;;;;;;;4984567;28;20628;-79
2022/02/26 05:08:56;;;;;;;34.80;9.00;;;;;;;;;;4988295;28;20886;-80
2022/02/26 05:11:23;;;;;;;31.77;9.00;;;;;;;;;;4989888;28;20479;-82
2022/02/26 05:13:50;;;;;;;34.33;8.63;;;;;;;;;;4984388;28;20579;-80
2022/02/26 05:16:18;;;;;;;31.70;9.17;;;;;;;;;;4986602;28;20476;-82
2022/02/26 05:18:46;;;;;;;42.57;9.90;;;;;;;;;;4989395;28;21024;-80
2022/02/26 05:21:13;;;;;;;33.10;9.27;;;;;;;;;;4982521;28;20555;-78
2022/02/26 05:23:42;;;;;;;37.33;9.47;;;;;;;;;;4991240;28;20452;-79
2022/02/26 05:26:09;;;;;;;42.30;10.70;;;;;;;;;;4993874;28;20460;-79
2022/02/26 05:28:36;;;;;;;39.20;10.20;;;;;;;;;;4990386;28;20457;-80
2022/02/26 05:31:04;;;;;;;48.00;11.87;;;;;;;;;;4992973;28;20921;-80
2022/02/26 05:33:32;;;;;;;40.80;11.27;;;;;;;;;;4993461;28;20489;-81
2022/02/26 05:35:59;;;;;;;36.60;10.83;;;;;;;;;;4992638;28;20583;-82
2022/02/26 05:38:27;;;;;;;39.43;10.07;;;;;;;;;;5000305;28;20457;-80
2022/02/26 05:40:54;;;;;;;39.37;11.80;;;;;;;;;;4991199;28;20478;-78
2022/02/26 05:43:21;;;;;;;35.57;10.20;;;;;;;;;;4990151;28;20475;-80
2022/02/26 05:45:49;;;;;;;45.27;12.10;;;;;;;;;;4986958;28;20469;-78
2022/02/26 05:48:16;;;;;;;29.60;11.43;;;;;;;;;;4984424;28;20450;-78
2022/02/26 05:50:44;;;;;;;41.70;11.43;;;;;;;;;;4984809;28;20472;-80
2022/02/26 05:53:11;;;;;;;41.27;11.50;;;;;;;;;;4984287;28;20469;-80
2022/02/26 05:55:39;;;;;;;34.77;11.80;;;;;;;;;;4989851;28;20945;-78
2022/02/26 05:58:06;;;;;;;38.33;11.17;;;;;;;;;;4984503;28;20795;-79
2022/02/26 06:00:33;;;;;;;42.87;11.47;;;;;;;;;;4981283;28;20532;-78
2022/02/26 06:03:00;;;;;;;51.80;11.40;;;;;;;;;;4990390;28;20778;-80
2022/02/26 06:05:27;;;;;;;34.17;12.37;;;;;;;;;;4995982;28;20444;-80
2022/02/26 06:07:56;;;;;;;37.70;10.03;;;;;;;;;;4987732;28;20805;-79
2022/02/26 06:10:23;;;;;;;46.60;11.53;;;;;;;;;;4990651;28;20465;-80
2022/02/26 06:12:50;;;;;;;40.10;11.03;;;;;;;;;;4994507;28;20513;-80
2022/02/26 06:15:18;;;;;;;33.07;9.90;;;;;;;;;;4989838;28;20487;-80
2022/02/26 06:17:45;;;;;;;23.70;9.50;;;;;;;;;;4989000;28;20474;-80
2022/02/26 06:20:13;;;;;;;39.30;11.20;;;;;;;;;;4986855;28;20247;-80
2022/02/26 06:22:40;;;;;;;42.43;10.73;;;;;;;;;;4986638;28;20499;-79
2022/02/26 06:25:10;;;;;;;36.63;11.43;;;;;;;;;;4984457;28;20543;-79
2022/02/26 06:27:38;;;;;;;37.00;11.43;;;;;;;;;;4982681;28;20947;-79
2022/02/26 06:30:05;;;;;;;44.53;11.80;;;;;;;;;;4984622;28;20465;-79
2022/02/26 06:32:32;;;;;;;35.60;9.97;;;;;;;;;;4984743;28;20514;-80
2022/02/26 06:34:59;;;;;;;44.63;9.53;;;;;;;;;;4983003;28;20931;-81
2022/02/26 06:37:27;;;;;;;40.27;11.30;;;;;;;;;;4983864;28;20473;-79
2022/02/26 06:39:54;;;;;;;37.50;10.87;;;;;;;;;;4987284;28;20459;-79
2022/02/26 06:42:23;;;;;;;52.10;11.00;;;;;;;;;;4980384;28;20508;-79
2022/02/26 06:44:50;;;;;;;42.33;11.17;;;;;;;;;;4977923;28;20465;-80
2022/02/26 06:47:17;;;;;;;45.67;12.30;;;;;;;;;;4981205;28;20531;-79
2022/02/26 06:49:44;;;;;;;36.37;11.80;;;;;;;;;;4984182;28;20575;-79
2022/02/26 06:52:11;;;;;;;42.63;11.77;;;;;;;;;;4984255;28;20484;-79
2022/02/26 06:54:39;;;;;;;43.13;10.60;;;;;;;;;;4984381;28;20475;-78
2022/02/26 06:57:06;;;;;;;28.30;10.87;;;;;;;;;;4986546;28;20558;-80
2022/02/26 06:59:35;;;;;;;37.77;11.57;;;;;;;;;;4986436;28;20457;-78
2022/02/26 07:02:02;;;;;;;46.20;11.10;;;;;;;;;;4985851;28;20479;-78
2022/02/26 07:04:30;;;;;;;43.60;11.03;;;;;;;;;;4987082;28;20463;-78
2022/02/26 07:06:57;;;;;;;44.00;10.27;;;;;;;;;;4988282;28;20453;-79
2022/02/26 07:09:24;;;;;;;47.67;10.80;;;;;;;;;;4987893;28;20467;-79
2022/02/26 07:11:51;;;;;;;44.60;10.43;;;;;;;;;;4982047;28;20850;-79
2022/02/26 07:14:19;;;;;;;35.90;10.77;;;;;;;;;;4984025;28;20925;-80
2022/02/26 07:16:47;;;;;;;39.33;10.27;;;;;;;;;;4984030;28;20457;-78
2022/02/26 07:19:15;;;;;;;36.10;10.60;;;;;;;;;;4982786;28;20204;-80
2022/02/26 07:21:43;;;;;;;38.73;10.97;;;;;;;;;;4989982;28;20220;-79
2022/02/26 07:24:10;;;;;;;38.27;10.17;;;;;;;;;;4988023;28;20451;-78
2022/02/26 07:26:38;;;;;;;34.03;10.77;;;;;;;;;;4995197;28;20486;-78
2022/02/26 07:29:05;;;;;;;37.33;11.60;;;;;;;;;;4988890;28;20538;-78
2022/02/26 07:31:32;;;;;;;52.97;17.53;;;;;;;;;;4992114;28;20639;-79
2022/02/26 07:34:01;;;;;;;69.00;23.53;;;;;;;;;;4991879;28;20227;-79
2022/02/26 07:36:28;;;;;;;69.43;24.70;;;;;;;;;;4992660;28;20471;-79
2022/02/26 07:38:55;;;;;;;73.77;25.67;;;;;;;;;;4997468;28;20227;-78
2022/02/26 07:41:22;;;;;;;59.63;20.30;;;;;;;;;;4992141;28;20752;-79
2022/02/26 07:43:50;;;;;;;56.67;14.50;;;;;;;;;;4993384;28;20233;-77
2022/02/26 07:46:17;;;;;;;43.87;14.90;;;;;;;;;;4995311;28;20229;-79
2022/02/26 07:48:44;;;;;;;55.60;16.57;;;;;;;;;;4993734;28;20544;-77
2022/02/26 07:51:13;;;;;;;50.67;13.43;;;;;;;;;;4993928;28;20351;-80
2022/02/26 07:53:40;;;;;;;33.50;11.10;;;;;;;;;;4995254;28;20268;-79
2022/02/26 07:56:07;;;;;;;39.70;11.37;;;;;;;;;;4994835;28;20233;-80
2022/02/26 07:58:34;;;;;;;41.07;11.30;;;;;;;;;;4994563;28;20463;-79
2022/02/26 08:01:01;;;;;;;35.77;11.43;;;;;;;;;;4993311;28;20267;-78
2022/02/26 08:03:28;;;;;;;43.90;12.90;;;;;;;;;;4997048;28;20237;-78
2022/02/26 08:05:56;;;;;;;38.20;12.60;;;;;;;;;;4986819;28;20531;-78
2022/02/26 08:08:24;;;;;;;47.53;11.77;;;;;;;;;;4990563;28;20269;-78
2022/02/26 08:10:51;;;;;;;44.23;11.57;;;;;;;;;;5004672;28;20220;-78
2022/02/26 08:13:19;;;;;;;31.37;11.47;;;;;;;;;;5007082;28;21005;-78
2022/02/26 08:15:46;;;;;;;40.60;11.40;;;;;;;;;;5008332;28;20291;-78
2022/02/26 08:18:15;;;;;;;31.23;9.77;;;;;;;;;;5006627;28;20216;-78
2022/02/26 08:20:42;;;;;;;23.07;8.60;;;;;;;;;;5000306;28;20201;-77
2022/02/26 08:23:09;;;;;;;21.60;7.53;;;;;;;;;;5000343;28;20703;-79
2022/02/26 08:25:38;;;;;;;18.70;6.90;;;;;;;;;;5001778;28;20265;-79
2022/02/26 08:28:05;;;;;;;19.70;5.90;;;;;;;;;;5003145;28;20418;-79
2022/02/26 08:30:33;;;;;;;18.23;6.37;;;;;;;;;;4996867;28;20607;-80
2022/02/26 08:33:00;;;;;;;17.70;6.13;;;;;;;;;;4996128;28;20257;-78
2022/02/26 08:35:27;;;;;;;18.10;6.20;;;;;;;;;;4985138;28;20317;-79
2022/02/26 08:37:54;;;;;;;20.03;6.10;;;;;;;;;;4986720;28;20288;-78
2022/02/26 08:40:22;;;;;;;17.73;6.23;;;;;;;;;;4978862;28;20639;-79
2022/02/26 08:42:51;;;;;;;14.93;5.40;;;;;;;;;;4987229;28;20227;-79
2022/02/26 08:45:18;;;;;;;16.53;4.50;;;;;;;;;;4983775;28;20673;-79
2022/02/26 08:47:45;;;;;;;15.17;4.40;;;;;;;;;;4987065;28;20209;-80
2022/02/26 08:50:14;;;;;;;15.57;4.70;;;;;;;;;;4986014;28;20257;-79
2022/02/26 08:52:42;;;;;;;17.10;4.97;;;;;;;;;;4992310;28;20628;-80
2022/02/26 08:55:09;;;;;;;17.40;4.70;;;;;;;;;;4985531;28;20226;-80
2022/02/26 08:57:37;;;;;;;13.37;4.07;;;;;;;;;;4985183;28;20215;-80
2022/02/26 09:00:07;;;;;;;20.67;4.60;;;;;;;;;;4990951;28;20293;-79
2022/02/26 09:02:34;;;;;;;15.10;4.30;;;;;;;;;;4988516;28;20316;-81
2022/02/26 09:05:01;;;;;;;13.27;4.47;;;;;;;;;;4990887;28;20492;-79
2022/02/26 09:07:28;;;;;;;19.57;4.70;;;;;;;;;;4988359;28;20211;-81
2022/02/26 09:09:55;;;;;;;11.63;4.53;;;;;;;;;;4989547;28;20201;-79
2022/02/26 09:12:23;;;;;;;15.20;4.57;;;;;;;;;;4988720;28;20597;-81
2022/02/26 09:14:50;;;;;;;22.10;4.77;;;;;;;;;;4986458;28;20308;-79
2022/02/26 09:17:18;;;;;;;15.10;4.40;;;;;;;;;;4981529;28;20206;-80
2022/02/26 09:19:45;;;;;;;18.07;4.90;;;;;;;;;;4987995;28;20209;-79
2022/02/26 09:22:13;;;;;;;19.43;4.80;;;;;;;;;;4989153;28;20225;-81
2022/02/26 09:24:40;;;;;;;13.13;4.53;;;;;;;;;;4992804;28;20240;-79
2022/02/26 09:27:07;;;;;;;19.77;4.40;;;;;;;;;;4989402;28;20216;-80
2022/02/26 09:29:35;;;;;;;13.17;4.63;;;;;;;;;;4986327;28;20221;-80
2022/02/26 09:32:02;;;;;;;19.17;5.53;;;;;;;;;;4985527;28;20256;-79
2022/02/26 09:34:30;;;;;;;21.23;6.57;;;;;;;;;;4989312;28;20691;-80
2022/02/26 09:36:58;;;;;;;17.90;4.80;;;;;;;;;;4983063;28;20211;-80
2022/02/26 09:39:25;;;;;;;17.63;5.10;;;;;;;;;;4989145;28;20232;-81
2022/02/26 09:41:53;;;;;;;27.73;7.10;;;;;;;;;;4985522;28;20308;-80
2022/02/26 09:44:20;;;;;;;17.10;4.90;;;;;;;;;;4982292;28;20213;-81
2022/02/26 09:46:47;;;;;;;23.47;5.83;;;;;;;;;;4982458;28;20228;-80
2022/02/26 09:49:15;;;;;;;18.03;5.43;;;;;;;;;;4986368;28;20666;-80
2022/02/26 09:51:44;;;;;;;12.80;4.30;;;;;;;;;;4985376;28;20595;-80
2022/02/26 09:54:11;;;;;;;18.17;3.97;;;;;;;;;;4982196;28;20276;-80
2022/02/26 09:56:39;;;;;;;18.63;4.37;;;;;;;;;;4981376;28;20327;-79
2022/02/26 09:59:06;;;;;;;13.87;4.50;;;;;;;;;;4980229;28;20204;-80
2022/02/26 10:01:33;;;;;;;17.10;4.60;;;;;;;;;;4976796;28;20221;-80
2022/02/26 10:04:07;;;;;;;13.33;3.67;;;;;;;;;;4975604;28;20854;-81
2022/02/26 10:06:34;;;;;;;22.97;4.37;;;;;;;;;;4987300;28;20225;-79
2022/02/26 10:09:09;;;;;;;19.03;4.23;;;;;;;;;;4994568;28;20205;-80
2022/02/26 10:11:37;;;;;;;18.60;3.50;;;;;;;;;;4988739;28;20228;-79
2022/02/26 10:14:05;;;;;;;20.07;4.00;;;;;;;;;;5000940;28;20296;-79
2022/02/26 10:16:49;;;;;;;14.27;3.80;;;;;;;;;;4995155;28;20324;-79
2022/02/26 10:19:23;;;;;;;19.07;3.27;;;;;;;;;;5000796;28;20236;-78
2022/02/26 10:21:50;;;;;;;17.03;3.70;;;;;;;;;;5003079;28;20437;-78
2022/02/26 10:24:19;;;;;;;14.77;3.63;;;;;;;;;;4993501;28;20236;-79
2022/02/26 10:26:50;;;;;;;15.93;4.27;;;;;;;;;;4987125;28;20614;-79
2022/02/26 10:29:19;;;;;;;19.00;4.53;;;;;;;;;;5018375;22;20239;-84
2022/02/26 10:31:48;;;;;;;14.87;3.23;;;;;;;;;;5006158;28;20716;-85
2022/02/26 10:34:32;;;;;;;15.43;3.60;;;;;;;;;;5008517;28;20236;-85
2022/02/26 10:37:00;;;;;;;15.30;4.10;;;;;;;;;;5006251;28;20641;-86
2022/02/26 10:39:30;;;;;;;11.33;3.90;;;;;;;;;;5005122;28;20649;-85
2022/02/26 10:41:57;;;;;;;16.07;3.30;;;;;;;;;;5007834;28;20224;-84
2022/02/26 10:44:25;;;;;;;19.10;4.33;;;;;;;;;;5001580;28;20216;-83
2022/02/26 10:46:52;;;;;;;16.77;3.93;;;;;;;;;;5004982;28;20205;-86
2022/02/26 10:49:20;;;;;;;19.30;4.20;;;;;;;;;;5009915;28;20723;-85
2022/02/26 10:51:50;;;;;;;13.43;3.80;;;;;;;;;;5010427;28;20232;-83
2022/02/26 10:54:23;;;;;;;16.50;3.50;;;;;;;;;;5012963;28;20219;-86
2022/02/26 10:56:52;;;;;;;10.43;3.83;;;;;;;;;;5012598;28;20239;-84
2022/02/26 10:59:30;;;;;;;19.17;4.43;;;;;;;;;;5016152;28;20240;-84
2022/02/26 11:02:02;;;;;;;16.67;5.23;;;;;;;;;;5016574;28;20216;-84
2022/02/26 11:04:29;;;;;;;18.10;3.60;;;;;;;;;;5011212;28;20594;-84
2022/02/26 11:06:56;;;;;;;19.97;5.90;;;;;;;;;;5012771;28;20197;-85
2022/02/26 11:09:23;;;;;;;18.77;4.33;;;;;;;;;;5011209;28;20220;-85
2022/02/26 11:11:52;;;;;;;15.77;3.27;;;;;;;;;;5011134;28;20687;-84
2022/02/26 11:14:21;;;;;;;13.00;3.40;;;;;;;;;;5007178;28;20209;-84
2022/02/26 11:16:50;;;;;;;19.67;3.83;;;;;;;;;;5005675;28;20237;-84
2022/02/26 11:19:19;;;;;;;9.53;2.90;;;;;;;;;;5011207;28;20221;-86
2022/02/26 11:21:49;;;;;;;21.30;3.13;;;;;;;;;;5010566;28;20212;-84
2022/02/26 11:24:17;;;;;;;16.30;3.13;;;;;;;;;;5009047;28;20220;-85
2022/02/26 11:26:45;;;;;;;17.07;3.93;;;;;;;;;;5007825;28;20296;-85
2022/02/26 11:29:16;;;;;;;15.93;2.83;;;;;;;;;;5003396;28;20263;-85
2022/02/26 11:31:46;;;;;;;19.73;3.83;;;;;;;;;;5001335;28;20302;-86
2022/02/26 11:34:14;;;;;;;15.10;2.97;;;;;;;;;;5003088;28;20307;-85
2022/02/26 11:36:48;;;;;;;17.47;3.50;;;;;;;;;;5002619;28;20224;-85
2022/02/26 11:39:22;;;;;;;18.40;2.83;;;;;;;;;;4999897;28;20606;-84
2022/02/26 11:41:50;;;;;;;13.17;3.17;;;;;;;;;;5002987;28;20200;-85
2022/02/26 11:44:38;;;;;;;15.50;3.13;;;;;;;;;;5010878;28;20235;-85
2022/02/26 11:47:17;;;;;;;10.60;2.50;;;;;;;;;;5009082;28;20205;-85
2022/02/26 11:49:56;;;;;;;16.77;2.80;;;;;;;;;;5011581;28;20243;-85
2022/02/26 11:52:37;;;;;;;17.93;3.00;;;;;;;;;;5012879;28;20207;-84
2022/02/26 11:55:04;;;;;;;17.83;3.00;;;;;;;;;;5008773;28;20216;-84
2022/02/26 11:57:32;;;;;;;14.93;2.80;;;;;;;;;;5011234;28;20231;-84
2022/02/26 12:00:12;;;;;;;10.93;2.43;;;;;;;;;;5004624;28;20991;-83
2022/02/26 12:02:39;;;;;;;22.40;5.73;;;;;;;;;;5010017;28;20209;-84
2022/02/26 12:05:09;;;;;;;14.97;3.03;;;;;;;;;;5006492;28;20242;-83
2022/02/26 12:07:39;;;;;;;14.00;2.73;;;;;;;;;;5010761;28;20208;-83
2022/02/26 12:10:08;;;;;;;11.60;2.77;;;;;;;;;;5006956;28;20242;-84
2022/02/26 12:12:36;;;;;;;12.27;2.47;;;;;;;;;;5009226;28;20300;-83
2022/02/26 12:15:04;;;;;;;16.97;3.00;;;;;;;;;;5010133;28;20220;-84
2022/02/26 12:17:32;;;;;;;14.27;2.60;;;;;;;;;;5009397;28;20224;-84
2022/02/26 12:20:00;;;;;;;15.07;2.60;;;;;;;;;;5009142;28;20360;-82
2022/02/26 12:22:35;;;;;;;8.37;2.20;;;;;;;;;;5011635;28;20216;-84
2022/02/26 12:25:12;;;;;;;13.93;2.60;;;;;;;;;;5008802;28;20419;-83
2022/02/26 12:27:39;;;;;;;14.57;2.43;;;;;;;;;;5012507;28;20209;-83
2022/02/26 12:30:10;;;;;;;16.07;2.70;;;;;;;;;;5006889;28;20347;-84
2022/02/26 12:32:51;;;;;;;12.97;2.30;;;;;;;;;;5011726;28;20208;-83
2022/02/26 12:35:19;;;;;;;15.40;3.00;;;;;;;;;;5009838;28;20200;-84
2022/02/26 12:37:47;;;;;;;11.00;2.10;;;;;;;;;;5007865;28;20228;-84
2022/02/26 12:40:15;;;;;;;14.60;3.20;;;;;;;;;;5006707;28;20216;-84
2022/02/26 12:42:43;;;;;;;16.17;3.07;;;;;;;;;;5009395;28;20231;-84
2022/02/26 12:45:11;;;;;;;13.43;2.80;;;;;;;;;;5010479;28;20299;-84
2022/02/26 12:47:43;;;;;;;8.23;2.50;;;;;;;;;;5010033;28;20255;-85
2022/02/26 12:50:12;;;;;;;12.77;2.53;;;;;;;;;;5009436;28;20224;-85
2022/02/26 12:52:40;;;;;;;11.53;2.53;;;;;;;;;;5009689;28;20673;-84
2022/02/26 12:55:09;;;;;;;15.57;2.67;;;;;;;;;;5007844;28;20287;-84
2022/02/26 12:57:36;;;;;;;12.50;2.97;;;;;;;;;;5012326;28;20581;-83
2022/02/26 13:00:04;;;;;;;14.70;2.20;;;;;;;;;;5012226;28;20224;-86
2022/02/26 13:02:32;;;;;;;15.23;4.03;;;;;;;;;;5008257;28;20200;-84
2022/02/26 13:05:02;;;;;;;10.40;2.07;;;;;;;;;;5006165;28;20559;-86
2022/02/26 13:07:31;;;;;;;11.60;2.53;;;;;;;;;;5008271;28;20201;-84
2022/02/26 13:09:59;;;;;;;16.07;2.90;;;;;;;;;;5009144;28;20239;-83
2022/02/26 13:12:27;;;;;;;10.30;2.80;;;;;;;;;;5007931;28;20232;-84
2022/02/26 13:14:55;;;;;;;12.23;2.30;;;;;;;;;;5007195;28;20622;-85
2022/02/26 13:17:23;;;;;;;19.10;3.00;;;;;;;;;;5010723;28;20224;-84
2022/02/26 13:19:50;;;;;;;16.93;2.90;;;;;;;;;;5007945;28;20259;-85
2022/02/26 13:22:17;;;;;;;13.03;2.80;;;;;;;;;;5007466;28;20212;-83
2022/02/26 13:24:46;;;;;;;17.63;2.40;;;;;;;;;;5010746;28;20216;-84
2022/02/26 13:27:14;;;;;;;10.97;2.40;;;;;;;;;;5004397;28;20201;-85
2022/02/26 13:29:42;;;;;;;14.03;2.20;;;;;;;;;;5009229;28;20268;-83
2022/02/26 13:32:14;;;;;;;18.10;2.40;;;;;;;;;;5007240;28;20300;-84
2022/02/26 13:34:41;;;;;;;11.80;2.60;;;;;;;;;;5013187;28;20213;-83
2022/02/26 13:37:09;;;;;;;8.87;2.07;;;;;;;;;;5006020;28;20228;-84
2022/02/26 13:39:42;;;;;;;9.77;2.10;;;;;;;;;;5010263;28;20680;-85
2022/02/26 13:42:11;;;;;;;14.97;2.50;;;;;;;;;;5008776;28;20204;-84
2022/02/26 13:44:40;;;;;;;8.37;2.03;;;;;;;;;;5007075;28;20208;-84
2022/02/26 13:47:08;;;;;;;11.87;2.40;;;;;;;;;;5005407;28;20220;-84
2022/02/26 13:49:36;;;;;;;13.93;2.40;;;;;;;;;;5009408;28;20755;-83
2022/02/26 13:52:09;;;;;;;6.73;1.90;;;;;;;;;;5007357;28;20269;-84
2022/02/26 13:54:37;;;;;;;12.33;2.27;;;;;;;;;;5008422;28;20739;-85
2022/02/26 13:57:07;;;;;;;16.17;2.80;;;;;;;;;;5008709;28;20259;-85
2022/02/26 13:59:36;;;;;;;10.30;2.57;;;;;;;;;;5009068;28;20243;-82
2022/02/26 14:02:03;;;;;;;10.83;2.83;;;;;;;;;;5007268;28;20232;-85
2022/02/26 14:04:31;;;;;;;15.33;3.00;;;;;;;;;;5004919;28;20201;-83
2022/02/26 14:06:58;;;;;;;14.93;4.27;;;;;;;;;;5009045;28;20197;-86
2022/02/26 14:09:26;;;;;;;16.27;3.60;;;;;;;;;;5009740;28;20220;-84
2022/02/26 14:11:57;;;;;;;21.40;6.10;;;;;;;;;;5008709;28;20634;-86
2022/02/26 14:14:26;;;;;;;12.33;2.33;;;;;;;;;;5009732;28;20247;-86
2022/02/26 14:16:57;;;;;;;11.90;2.03;;;;;;;;;;5007729;28;20228;-85
2022/02/26 14:19:24;;;;;;;16.33;2.63;;;;;;;;;;5011483;28;20347;-86
2022/02/26 14:21:51;;;;;;;9.23;2.07;;;;;;;;;;5009954;28;20262;-84
2022/02/26 14:24:18;;;;;;;7.20;2.03;;;;;;;;;;5009429;28;20277;-84
2022/02/26 14:26:49;;;;;;;10.90;1.90;;;;;;;;;;5009008;28;20295;-84
2022/02/26 14:29:16;;;;;;;10.73;2.40;;;;;;;;;;5013270;28;20353;-85
2022/02/26 14:31:46;;;;;;;10.43;1.83;;;;;;;;;;5012774;28;20208;-85
2022/02/26 14:34:15;;;;;;;7.23;1.90;;;;;;;;;;5009560;28;20208;-85